Time;durP1;ratioP1;P1;durP2;ratioP2;P2;SDS_P1;SDS_P2;PMS_P1;PMS_P2;Temp;Humidity;BMP_temperature;BMP_pressure;BME280_temperature;BME280_humidity;BME280_pressure;Samples;Min_cycle;Max_cycle;Signal;HPM_P1;HPM_P2
2024/03/02 00:00:11;;;;;;;21.10;10.50;;;7.60;82.70;;;;;;5010173;28;20433;-70
2024/03/02 00:02:49;;;;;;;20.73;12.00;;;7.60;82.70;;;;;;5008052;28;20453;-73
2024/03/02 00:05:19;;;;;;;25.30;12.67;;;7.60;82.50;;;;;;5009819;28;20432;-71
2024/03/02 00:07:58;;;;;;;24.97;12.67;;;7.60;82.70;;;;;;5010494;28;20429;-71
2024/03/02 00:10:31;;;;;;;19.90;11.67;;;7.50;82.40;;;;;;5008080;28;20467;-70
2024/03/02 00:12:58;;;;;;;22.03;12.80;;;7.60;82.50;;;;;;5009122;28;20424;-70
2024/03/02 00:15:46;;;;;;;20.37;11.07;;;7.50;82.40;;;;;;5014002;28;20474;-72
2024/03/02 00:18:14;;;;;;;21.83;12.50;;;7.70;82.20;;;;;;5005296;28;20457;-70
2024/03/02 00:20:40;;;;;;;20.07;12.00;;;7.50;81.90;;;;;;5005575;28;21152;-72
2024/03/02 00:23:08;;;;;;;17.27;10.73;;;7.50;82.20;;;;;;5009805;28;20495;-71
2024/03/02 00:25:42;;;;;;;21.00;11.50;;;7.50;82.50;;;;;;5009714;28;20420;-70
2024/03/02 00:28:29;;;;;;;26.23;12.83;;;7.50;82.70;;;;;;5004583;28;21224;-71
2024/03/02 00:31:07;;;;;;;18.77;11.67;;;7.50;82.70;;;;;;5006106;28;21022;-71
2024/03/02 00:33:43;;;;;;;23.00;11.27;;;7.50;82.80;;;;;;5009432;28;20425;-73
2024/03/02 00:36:09;;;;;;;20.10;10.97;;;7.50;82.70;;;;;;5009326;28;20418;-72
2024/03/02 00:38:46;;;;;;;19.47;11.27;;;7.50;82.70;;;;;;5008899;28;20425;-70
2024/03/02 00:41:23;;;;;;;21.63;11.43;;;7.60;82.70;;;;;;5006699;28;20466;-72
2024/03/02 00:44:10;;;;;;;16.90;10.10;;;7.60;82.40;;;;;;5003990;28;20459;-70
2024/03/02 00:46:40;;;;;;;16.70;10.50;;;7.60;81.90;;;;;;5009141;28;20851;-70
2024/03/02 00:49:11;;;;;;;17.70;10.20;;;7.60;81.80;;;;;;5008907;28;20451;-72
2024/03/02 00:51:38;;;;;;;17.57;8.97;;;7.70;81.50;;;;;;5006784;28;20476;-72
2024/03/02 00:54:06;;;;;;;16.83;8.73;;;7.70;80.90;;;;;;5009315;28;20851;-70
2024/03/02 00:56:32;;;;;;;19.40;10.73;;;7.70;80.80;;;;;;5009110;28;20519;-71
2024/03/02 00:58:58;;;;;;;16.33;9.40;;;7.70;80.50;;;;;;5009747;28;20447;-69
2024/03/02 01:01:24;;;;;;;19.07;9.90;;;7.60;80.50;;;;;;5009925;28;20468;-70
2024/03/02 01:03:50;;;;;;;16.50;8.93;;;7.70;80.80;;;;;;5013502;28;20436;-71
2024/03/02 01:06:16;;;;;;;21.00;10.57;;;7.70;80.60;;;;;;5012913;28;20225;-72
2024/03/02 01:08:42;;;;;;;20.10;11.17;;;7.60;80.80;;;;;;5015562;28;20508;-69
2024/03/02 01:11:08;;;;;;;18.20;9.53;;;7.60;80.90;;;;;;5011132;28;20539;-69
2024/03/02 01:13:34;;;;;;;17.30;10.17;;;7.60;80.80;;;;;;5014121;28;20424;-71
2024/03/02 01:16:00;;;;;;;15.77;9.50;;;7.60;80.80;;;;;;5013881;28;20190;-72
2024/03/02 01:18:26;;;;;;;16.10;9.33;;;7.50;80.80;;;;;;5013625;28;20190;-71
2024/03/02 01:20:52;;;;;;;23.00;10.30;;;7.50;80.90;;;;;;5010636;28;20488;-70
2024/03/02 01:23:24;;;;;;;16.37;9.13;;;7.50;81.10;;;;;;5013862;28;20464;-72
2024/03/02 01:25:50;;;;;;;15.77;8.70;;;7.50;81.20;;;;;;5013981;28;20596;-71
2024/03/02 01:28:16;;;;;;;16.33;9.57;;;7.60;81.20;;;;;;5010218;28;20433;-70
2024/03/02 01:30:42;;;;;;;17.23;9.17;;;7.60;81.10;;;;;;5010704;28;20498;-70
2024/03/02 01:33:08;;;;;;;20.70;9.70;;;7.60;81.10;;;;;;5013170;28;20236;-70
2024/03/02 01:35:34;;;;;;;23.87;10.40;;;7.60;80.90;;;;;;5013571;28;20948;-70
2024/03/02 01:38:00;;;;;;;20.00;11.80;;;7.50;80.90;;;;;;5012596;28;20190;-71
2024/03/02 01:40:26;;;;;;;19.70;10.33;;;7.40;81.20;;;;;;5010083;28;20428;-69
2024/03/02 01:42:57;;;;;;;19.83;10.50;;;7.30;81.50;;;;;;5011279;28;20475;-72
2024/03/02 01:45:24;;;;;;;17.00;10.23;;;7.30;81.90;;;;;;5011975;28;20269;-71
2024/03/02 01:47:50;;;;;;;24.03;11.13;;;7.30;82.20;;;;;;5011401;28;20508;-69
2024/03/02 01:50:23;;;;;;;23.17;10.67;;;7.40;82.20;;;;;;5012076;28;20473;-72
2024/03/02 01:52:49;;;;;;;17.10;10.10;;;7.40;82.10;;;;;;5013523;28;20475;-70
2024/03/02 01:55:15;;;;;;;21.37;11.77;;;7.40;81.90;;;;;;5012089;28;20428;-69
2024/03/02 01:57:40;;;;;;;19.30;10.30;;;7.40;81.70;;;;;;5010857;28;20182;-70
2024/03/02 02:00:07;;;;;;;21.83;11.70;;;7.30;81.90;;;;;;5011565;28;20202;-70
2024/03/02 02:02:32;;;;;;;19.17;10.57;;;7.20;82.10;;;;;;5008591;28;20917;-70
2024/03/02 02:04:58;;;;;;;20.47;9.40;;;7.10;82.20;;;;;;5011956;28;20440;-71
2024/03/02 02:07:23;;;;;;;17.30;9.23;;;7.00;82.50;;;;;;5011066;28;20209;-71
2024/03/02 02:09:49;;;;;;;16.63;9.67;;;6.90;82.50;;;;;;5010895;28;20186;-71
2024/03/02 02:12:15;;;;;;;19.67;10.40;;;6.90;82.70;;;;;;5008896;28;20858;-69
2024/03/02 02:14:48;;;;;;;18.93;9.80;;;6.80;82.80;;;;;;5011982;28;20190;-69
2024/03/02 02:17:14;;;;;;;21.03;9.70;;;6.70;82.80;;;;;;5011294;28;20425;-71
2024/03/02 02:19:41;;;;;;;18.57;10.70;;;6.70;83.00;;;;;;5011071;28;20792;-71
2024/03/02 02:22:06;;;;;;;19.47;9.53;;;6.50;83.10;;;;;;5009018;28;20574;-71
2024/03/02 02:24:32;;;;;;;17.70;9.93;;;6.40;83.30;;;;;;5011502;28;20539;-70
2024/03/02 02:26:57;;;;;;;18.13;9.80;;;6.40;83.70;;;;;;5010569;28;20546;-71
2024/03/02 02:29:23;;;;;;;22.13;10.03;;;6.30;84.00;;;;;;5011643;28;20243;-71
2024/03/02 02:31:49;;;;;;;22.07;10.77;;;6.30;84.10;;;;;;5009138;28;20221;-70
2024/03/02 02:34:15;;;;;;;21.60;10.37;;;6.30;84.30;;;;;;5011716;28;20193;-74
2024/03/02 02:36:41;;;;;;;19.97;10.23;;;6.20;84.30;;;;;;5010733;28;20443;-70
2024/03/02 02:39:11;;;;;;;21.93;10.67;;;6.10;84.40;;;;;;5010899;28;20812;-70
2024/03/02 02:41:37;;;;;;;20.30;10.63;;;6.10;84.60;;;;;;5008843;28;20504;-69
2024/03/02 02:44:03;;;;;;;18.80;9.70;;;6.00;84.70;;;;;;5011174;28;20479;-69
2024/03/02 02:46:29;;;;;;;22.43;11.30;;;6.00;84.70;;;;;;5010475;28;20429;-71
2024/03/02 02:48:54;;;;;;;22.47;12.07;;;6.00;84.70;;;;;;5011730;28;20586;-70
2024/03/02 02:51:20;;;;;;;21.17;9.70;;;5.90;85.20;;;;;;5008036;28;20209;-71
2024/03/02 02:53:46;;;;;;;18.63;9.60;;;5.90;85.20;;;;;;5010830;28;20210;-71
2024/03/02 02:56:12;;;;;;;19.90;11.00;;;5.90;85.20;;;;;;5013156;28;20239;-69
2024/03/02 02:58:37;;;;;;;20.00;10.80;;;5.90;85.20;;;;;;5016883;28;20265;-70
2024/03/02 03:01:03;;;;;;;19.73;9.83;;;5.90;85.00;;;;;;5008459;28;20906;-70
2024/03/02 03:03:29;;;;;;;31.17;13.33;;;5.90;85.00;;;;;;5013576;28;20190;-71
2024/03/02 03:05:55;;;;;;;26.43;11.90;;;5.80;85.20;;;;;;5012029;28;20547;-72
2024/03/02 03:08:20;;;;;;;23.00;12.37;;;5.80;85.30;;;;;;5010014;28;20185;-72
2024/03/02 03:10:46;;;;;;;23.47;11.80;;;5.70;85.30;;;;;;5007699;28;20228;-70
2024/03/02 03:13:11;;;;;;;21.10;11.33;;;5.70;85.50;;;;;;5010331;28;20273;-70
2024/03/02 03:15:37;;;;;;;24.30;11.20;;;5.60;85.70;;;;;;5010335;28;20186;-70
2024/03/02 03:18:04;;;;;;;21.53;11.53;;;5.50;86.00;;;;;;5010343;28;20239;-71
2024/03/02 03:20:30;;;;;;;25.93;11.50;;;5.50;86.30;;;;;;5008084;28;20188;-70
2024/03/02 03:22:56;;;;;;;23.37;12.27;;;5.40;86.30;;;;;;5003869;28;20432;-71
2024/03/02 03:25:22;;;;;;;23.03;11.13;;;5.40;86.60;;;;;;5011056;28;20443;-70
2024/03/02 03:27:48;;;;;;;21.90;11.40;;;5.40;86.80;;;;;;5009921;28;20417;-71
2024/03/02 03:30:14;;;;;;;19.50;10.40;;;5.50;86.90;;;;;;5009687;28;20415;-71
2024/03/02 03:32:40;;;;;;;20.97;10.40;;;5.50;86.80;;;;;;5008394;28;20203;-71
2024/03/02 03:35:06;;;;;;;24.07;11.63;;;5.50;86.80;;;;;;5012791;28;20416;-69
2024/03/02 03:37:34;;;;;;;21.63;10.47;;;5.50;86.60;;;;;;5013689;28;20416;-70
2024/03/02 03:40:00;;;;;;;23.40;11.30;;;5.40;86.50;;;;;;5012386;28;20506;-71
2024/03/02 03:42:26;;;;;;;23.10;11.67;;;5.30;86.50;;;;;;5008736;28;20456;-70
2024/03/02 03:44:52;;;;;;;23.80;9.90;;;5.30;86.60;;;;;;5010516;28;20424;-71
2024/03/02 03:47:18;;;;;;;22.13;11.23;;;5.20;86.80;;;;;;5011364;28;20182;-69
2024/03/02 03:49:44;;;;;;;23.77;11.50;;;5.20;86.90;;;;;;5013323;28;20196;-70
2024/03/02 03:52:09;;;;;;;25.33;12.17;;;5.20;86.90;;;;;;5008525;28;20221;-71
2024/03/02 03:54:37;;;;;;;26.53;11.93;;;5.20;87.00;;;;;;5010381;28;20490;-70
2024/03/02 03:57:02;;;;;;;27.60;11.33;;;5.20;87.00;;;;;;5009942;28;20197;-70
2024/03/02 03:59:28;;;;;;;24.17;11.40;;;5.10;87.00;;;;;;5010130;28;20433;-69
2024/03/02 04:01:53;;;;;;;23.33;11.90;;;5.10;87.30;;;;;;5008680;28;20205;-69
2024/03/02 04:04:19;;;;;;;25.03;11.60;;;5.10;87.40;;;;;;5010164;28;20557;-69
2024/03/02 04:06:44;;;;;;;21.30;10.23;;;5.10;87.40;;;;;;5009915;28;20196;-70
2024/03/02 04:09:10;;;;;;;35.30;14.73;;;5.20;87.60;;;;;;5009988;28;20200;-70
2024/03/02 04:11:36;;;;;;;26.40;13.63;;;5.10;87.60;;;;;;5007833;28;20240;-70
2024/03/02 04:14:02;;;;;;;30.07;13.50;;;5.10;87.40;;;;;;5010309;28;20598;-71
2024/03/02 04:16:28;;;;;;;22.97;12.67;;;5.10;87.60;;;;;;5009630;28;20992;-71
2024/03/02 04:18:54;;;;;;;29.17;13.17;;;5.00;87.70;;;;;;5009886;28;20182;-71
2024/03/02 04:21:20;;;;;;;29.40;13.33;;;5.10;87.80;;;;;;5007685;28;20471;-72
2024/03/02 04:23:45;;;;;;;29.47;13.57;;;5.10;87.80;;;;;;5010559;28;20197;-72
2024/03/02 04:26:11;;;;;;;23.70;12.17;;;5.10;87.80;;;;;;5013936;28;20550;-69
2024/03/02 04:28:36;;;;;;;27.83;11.97;;;5.00;87.80;;;;;;5011886;28;20213;-73
2024/03/02 04:31:02;;;;;;;28.50;14.10;;;5.00;87.80;;;;;;5007404;28;20622;-71
2024/03/02 04:33:28;;;;;;;22.27;11.00;;;5.10;88.00;;;;;;5010072;28;20240;-71
2024/03/02 04:35:53;;;;;;;25.50;11.77;;;5.10;88.00;;;;;;5013584;28;20734;-71
2024/03/02 04:38:19;;;;;;;25.90;11.77;;;5.10;88.00;;;;;;5013744;28;20197;-69
2024/03/02 04:40:44;;;;;;;29.17;12.77;;;5.20;88.00;;;;;;5012965;28;20205;-70
2024/03/02 04:43:10;;;;;;;22.83;11.30;;;5.20;88.00;;;;;;5013565;28;20205;-69
2024/03/02 04:45:38;;;;;;;23.30;11.50;;;5.20;88.00;;;;;;5012501;28;20650;-71
2024/03/02 04:48:04;;;;;;;28.80;11.70;;;5.20;87.70;;;;;;5012888;28;20186;-72
2024/03/02 04:50:29;;;;;;;28.23;14.37;;;5.30;87.70;;;;;;5010500;28;20792;-70
2024/03/02 04:52:55;;;;;;;23.63;12.13;;;5.20;87.40;;;;;;5012874;28;20891;-70
2024/03/02 04:57:50;;;;;;;25.87;13.00;;;5.20;87.60;;;;;;5019579;28;20247;-69
2024/03/02 05:00:17;;;;;;;24.53;11.67;;;5.10;87.60;;;;;;5021160;28;20424;-70
2024/03/02 05:02:42;;;;;;;24.53;11.80;;;5.20;87.70;;;;;;5015190;28;20952;-72
2024/03/02 05:05:08;;;;;;;26.63;13.00;;;5.10;87.70;;;;;;5012625;28;20487;-71
2024/03/02 05:07:34;;;;;;;25.37;13.40;;;5.10;87.70;;;;;;5011789;28;20197;-70
2024/03/02 05:09:59;;;;;;;30.83;13.80;;;5.10;87.70;;;;;;5012398;28;20416;-70
2024/03/02 05:12:56;;;;;;;32.10;13.37;;;5.10;87.70;;;;;;5009691;28;20210;-70
2024/03/02 05:15:22;;;;;;;29.73;12.80;;;5.10;87.70;;;;;;5009590;28;20713;-70
2024/03/02 05:17:47;;;;;;;21.83;11.10;;;5.10;87.70;;;;;;5011860;28;20479;-70
2024/03/02 05:20:13;;;;;;;25.17;12.10;;;5.10;87.70;;;;;;5011900;28;20285;-70
2024/03/02 05:22:39;;;;;;;31.33;13.80;;;4.90;87.60;;;;;;5010012;28;20352;-70
2024/03/02 05:25:06;;;;;;;29.53;14.13;;;4.90;87.70;;;;;;5014954;28;20730;-69
2024/03/02 05:27:34;;;;;;;30.97;14.30;;;4.90;87.70;;;;;;5011336;28;20413;-70
2024/03/02 05:30:00;;;;;;;28.60;12.80;;;4.90;88.00;;;;;;5012081;28;20440;-71
2024/03/02 05:32:26;;;;;;;33.50;14.20;;;4.90;88.00;;;;;;5009815;28;20837;-70
2024/03/02 05:34:52;;;;;;;30.97;13.73;;;4.80;88.00;;;;;;5012140;28;20264;-72
2024/03/02 05:37:18;;;;;;;30.97;13.53;;;4.90;88.30;;;;;;5011374;28;20538;-71
2024/03/02 05:39:44;;;;;;;33.43;15.77;;;4.90;88.30;;;;;;5012217;28;20181;-72
2024/03/02 05:42:10;;;;;;;26.70;14.40;;;4.90;88.40;;;;;;5009086;28;20456;-70
2024/03/02 05:44:36;;;;;;;25.23;13.03;;;5.00;88.40;;;;;;5011874;28;20193;-71
2024/03/02 05:47:02;;;;;;;31.67;12.73;;;4.90;88.40;;;;;;5011757;28;20189;-71
2024/03/02 05:49:28;;;;;;;38.07;14.87;;;5.00;88.40;;;;;;5014849;28;20444;-71
2024/03/02 05:51:54;;;;;;;25.63;12.37;;;5.00;88.30;;;;;;5009603;28;20912;-70
2024/03/02 05:54:19;;;;;;;28.67;12.93;;;5.10;88.10;;;;;;5012043;28;20210;-70
2024/03/02 05:56:45;;;;;;;31.50;13.27;;;5.10;88.00;;;;;;5011864;28;20178;-70
2024/03/02 05:59:13;;;;;;;28.37;12.40;;;5.10;88.00;;;;;;5011161;28;20223;-70
2024/03/02 06:01:42;;;;;;;22.97;11.10;;;5.00;87.80;;;;;;5008847;28;20218;-72
2024/03/02 06:04:09;;;;;;;27.60;13.70;;;5.10;87.70;;;;;;5007088;28;20436;-71
2024/03/02 06:06:35;;;;;;;28.17;13.30;;;5.00;87.40;;;;;;5012407;28;20431;-70
2024/03/02 06:09:07;;;;;;;29.60;13.50;;;4.90;87.40;;;;;;5011834;28;20795;-70
2024/03/02 06:11:37;;;;;;;24.63;12.17;;;4.90;87.60;;;;;;5008543;28;20476;-71
2024/03/02 06:14:08;;;;;;;26.90;12.43;;;4.90;87.60;;;;;;5011471;28;20474;-71
2024/03/02 06:16:34;;;;;;;28.80;13.80;;;4.90;87.70;;;;;;5011139;28;20419;-70
2024/03/02 06:19:00;;;;;;;28.43;13.10;;;5.00;87.80;;;;;;5011016;28;20538;-70
2024/03/02 06:21:26;;;;;;;33.17;13.30;;;5.00;88.10;;;;;;5008107;28;20467;-70
2024/03/02 06:23:52;;;;;;;29.03;12.70;;;5.10;88.30;;;;;;5011320;28;20409;-73
2024/03/02 06:26:18;;;;;;;34.13;14.70;;;5.10;88.40;;;;;;5010779;28;20453;-71
2024/03/02 06:28:44;;;;;;;28.47;13.80;;;5.10;88.30;;;;;;5011121;28;20452;-72
2024/03/02 06:31:10;;;;;;;27.40;13.70;;;5.10;88.30;;;;;;5010483;28;20624;-70
2024/03/02 06:33:36;;;;;;;28.27;14.37;;;5.00;88.10;;;;;;5011327;28;20432;-71
2024/03/02 06:36:02;;;;;;;31.07;14.70;;;5.20;88.30;;;;;;5014095;28;20203;-70
2024/03/02 06:38:28;;;;;;;27.90;13.80;;;5.20;88.30;;;;;;5010389;28;20488;-70
2024/03/02 06:40:54;;;;;;;30.97;13.20;;;5.30;88.10;;;;;;5007667;28;20968;-72
2024/03/02 06:43:23;;;;;;;23.10;12.03;;;5.50;87.80;;;;;;5010749;28;20190;-71
2024/03/02 06:45:49;;;;;;;25.67;12.30;;;5.50;87.40;;;;;;5011118;28;20429;-70
2024/03/02 06:48:19;;;;;;;29.67;13.30;;;5.60;87.10;;;;;;5010292;28;21003;-71
2024/03/02 06:50:45;;;;;;;25.63;12.83;;;5.60;87.00;;;;;;5007298;28;21022;-71
2024/03/02 06:53:10;;;;;;;26.20;12.07;;;5.80;86.60;;;;;;5009620;28;20421;-71
2024/03/02 06:55:36;;;;;;;27.17;12.97;;;5.70;85.90;;;;;;5009438;28;20174;-70
2024/03/02 06:58:01;;;;;;;28.90;13.77;;;5.80;85.70;;;;;;5009080;28;20575;-70
2024/03/02 07:00:27;;;;;;;26.87;12.30;;;5.70;85.60;;;;;;5007784;28;20607;-69
2024/03/02 07:02:52;;;;;;;30.67;12.00;;;5.80;85.90;;;;;;5009022;28;20273;-70
2024/03/02 07:05:18;;;;;;;24.20;12.17;;;5.90;86.00;;;;;;5009753;28;20208;-70
2024/03/02 07:07:44;;;;;;;21.50;11.97;;;6.00;85.90;;;;;;5009513;28;20717;-71
2024/03/02 07:10:09;;;;;;;28.67;13.80;;;6.10;85.60;;;;;;5010309;28;20182;-73
2024/03/02 07:12:35;;;;;;;29.80;12.17;;;6.10;85.60;;;;;;5007652;28;20225;-71
2024/03/02 07:17:32;;;;;;;23.70;11.23;;;6.10;85.00;;;;;;5010863;28;20197;-71
2024/03/02 07:19:57;;;;;;;26.53;12.10;;;6.20;85.20;;;;;;5009552;28;20440;-72
2024/03/02 07:22:24;;;;;;;30.00;12.80;;;6.30;85.00;;;;;;5006500;28;20456;-72
2024/03/02 07:24:50;;;;;;;24.90;12.00;;;6.40;85.20;;;;;;5009574;28;20177;-72
2024/03/02 07:27:16;;;;;;;23.80;11.50;;;6.40;85.00;;;;;;5009960;28;20916;-71
2024/03/02 07:29:42;;;;;;;23.67;12.53;;;6.50;84.70;;;;;;4994890;28;20436;-70
2024/03/02 07:32:09;;;;;;;20.93;10.60;;;6.60;84.40;;;;;;5008411;28;20476;-72
2024/03/02 07:34:35;;;;;;;22.53;11.83;;;6.50;84.00;;;;;;5011178;28;20201;-71
2024/03/02 07:37:01;;;;;;;21.10;11.40;;;6.70;84.00;;;;;;5010243;28;20433;-71
2024/03/02 07:39:27;;;;;;;25.07;12.00;;;6.80;83.40;;;;;;5010878;28;20772;-69
2024/03/02 07:41:52;;;;;;;18.77;9.63;;;6.90;83.40;;;;;;5006793;28;20698;-71
2024/03/02 07:44:18;;;;;;;20.20;10.53;;;6.90;83.10;;;;;;5010054;28;20583;-72
2024/03/02 07:46:51;;;;;;;24.67;11.97;;;7.00;83.30;;;;;;5008980;28;20557;-73
2024/03/02 07:49:20;;;;;;;20.50;11.03;;;7.10;82.80;;;;;;4944642;28;1866846;-70
2024/03/02 07:51:46;;;;;;;20.17;10.17;;;7.20;82.50;;;;;;5003991;28;20225;-71
2024/03/02 07:54:12;;;;;;;21.33;10.77;;;7.20;82.40;;;;;;5009950;28;20429;-72
2024/03/02 07:56:38;;;;;;;22.57;11.20;;;7.30;81.90;;;;;;5009674;28;20261;-71
2024/03/02 07:59:04;;;;;;;24.83;12.13;;;7.30;81.90;;;;;;5010512;28;20424;-71
2024/03/02 08:01:30;;;;;;;20.33;10.30;;;7.40;81.90;;;;;;5007464;28;20322;-71
2024/03/02 08:04:01;;;;;;;26.17;11.73;;;7.40;81.90;;;;;;5010376;28;20429;-71
2024/03/02 08:06:30;;;;;;;24.33;11.37;;;7.50;81.40;;;;;;5007557;28;20417;-71
2024/03/02 08:08:59;;;;;;;18.73;9.80;;;7.40;81.20;;;;;;5008424;28;20952;-72
2024/03/02 08:11:27;;;;;;;20.07;11.20;;;7.50;81.10;;;;;;5010182;28;20567;-71
2024/03/02 08:13:54;;;;;;;19.93;10.67;;;7.50;80.80;;;;;;5010743;28;20795;-71
2024/03/02 08:16:21;;;;;;;23.93;11.23;;;7.50;80.60;;;;;;5013586;28;20988;-71
2024/03/02 08:18:48;;;;;;;24.20;10.50;;;7.50;80.30;;;;;;5013505;28;20811;-71
2024/03/02 08:21:14;;;;;;;24.73;11.40;;;7.50;80.50;;;;;;5011105;28;20539;-72
2024/03/02 08:23:40;;;;;;;17.67;9.10;;;7.60;80.30;;;;;;5013674;28;20428;-71
2024/03/02 08:26:06;;;;;;;17.37;9.33;;;7.60;80.30;;;;;;5013486;28;20429;-72
2024/03/02 08:28:32;;;;;;;14.40;9.13;;;7.60;80.20;;;;;;5015035;28;20503;-71
2024/03/02 08:30:58;;;;;;;18.17;9.17;;;7.70;79.70;;;;;;5009941;28;20502;-72
2024/03/02 08:33:24;;;;;;;13.43;8.53;;;7.70;79.00;;;;;;5012880;28;20424;-71
2024/03/02 08:35:50;;;;;;;14.90;8.40;;;7.80;78.60;;;;;;5012973;28;20177;-71
2024/03/02 08:38:15;;;;;;;19.47;9.50;;;7.90;78.40;;;;;;5013131;28;20269;-71
2024/03/02 08:40:41;;;;;;;15.33;9.00;;;7.80;78.60;;;;;;5010502;28;20703;-70
2024/03/02 08:43:07;;;;;;;16.27;9.33;;;7.80;78.90;;;;;;5012981;28;20321;-72
2024/03/02 08:45:34;;;;;;;17.27;9.23;;;7.80;78.70;;;;;;5013265;28;20186;-73
2024/03/02 08:47:59;;;;;;;16.40;8.00;;;7.90;78.70;;;;;;5015978;28;20713;-70
2024/03/02 08:50:25;;;;;;;13.07;7.63;;;8.00;78.30;;;;;;5011302;28;20527;-71
2024/03/02 08:52:50;;;;;;;14.07;8.53;;;8.10;78.00;;;;;;5013123;28;20201;-71
2024/03/02 08:55:16;;;;;;;16.17;8.97;;;8.20;77.30;;;;;;5013388;28;20177;-71
2024/03/02 08:57:42;;;;;;;14.23;8.50;;;8.30;76.70;;;;;;5012748;28;20317;-71
2024/03/02 09:00:08;;;;;;;16.20;8.40;;;8.30;76.50;;;;;;5014262;28;20189;-70
2024/03/02 09:02:34;;;;;;;17.23;8.30;;;8.40;76.50;;;;;;5011116;28;20641;-70
2024/03/02 09:05:00;;;;;;;16.37;8.77;;;8.40;75.40;;;;;;5013316;28;21208;-70
2024/03/02 09:07:26;;;;;;;16.00;7.90;;;8.50;74.80;;;;;;5013157;28;20420;-71
2024/03/02 09:09:52;;;;;;;17.77;7.73;;;8.60;74.50;;;;;;5013237;28;20475;-71
2024/03/02 09:12:18;;;;;;;11.93;7.70;;;8.60;74.00;;;;;;5010683;28;20205;-72
2024/03/02 09:14:44;;;;;;;14.77;7.70;;;8.60;74.20;;;;;;5013043;28;20448;-71
2024/03/02 09:17:11;;;;;;;16.13;8.07;;;8.60;74.20;;;;;;5012523;28;20182;-70
2024/03/02 09:19:37;;;;;;;15.00;7.80;;;8.70;74.30;;;;;;5012978;28;20468;-71
2024/03/02 09:22:03;;;;;;;12.13;7.10;;;8.80;74.30;;;;;;5010772;28;20483;-71
2024/03/02 09:24:28;;;;;;;16.17;6.60;;;9.00;73.50;;;;;;5012656;28;20210;-71
2024/03/02 09:26:54;;;;;;;15.13;6.60;;;9.10;72.70;;;;;;5011717;28;20497;-71
2024/03/02 09:29:20;;;;;;;17.10;7.33;;;9.10;72.30;;;;;;5012469;28;20314;-71
2024/03/02 09:31:46;;;;;;;14.37;7.10;;;9.20;72.10;;;;;;5009638;28;20217;-72
2024/03/02 09:34:14;;;;;;;9.17;6.27;;;9.30;71.70;;;;;;5012517;28;20439;-72
2024/03/02 09:36:39;;;;;;;11.10;6.63;;;9.50;71.60;;;;;;5012062;28;20194;-70
2024/03/02 09:39:07;;;;;;;8.23;5.67;;;9.70;71.30;;;;;;5012051;28;20432;-72
2024/03/02 09:41:33;;;;;;;8.67;6.20;;;9.90;71.00;;;;;;5003873;28;20202;-72
2024/03/02 09:43:59;;;;;;;10.97;5.90;;;10.00;69.80;;;;;;5013068;28;20421;-72
2024/03/02 09:46:25;;;;;;;11.00;6.30;;;10.10;69.40;;;;;;5011228;28;20940;-72
2024/03/02 09:48:51;;;;;;;11.77;6.60;;;10.30;68.80;;;;;;5011813;28;20445;-71
2024/03/02 09:51:19;;;;;;;9.97;6.63;;;10.40;68.80;;;;;;5008821;28;20213;-71
2024/03/02 09:53:46;;;;;;;11.30;6.20;;;10.50;68.50;;;;;;5011900;28;20176;-70
2024/03/02 09:56:12;;;;;;;10.37;5.70;;;10.60;67.70;;;;;;5011264;28;20471;-70
2024/03/02 09:58:39;;;;;;;11.13;6.60;;;10.70;67.70;;;;;;5011506;28;20417;-70
2024/03/02 10:01:07;;;;;;;8.50;5.40;;;10.70;66.70;;;;;;5010300;28;20317;-72
2024/03/02 10:03:34;;;;;;;8.33;5.03;;;10.60;67.20;;;;;;5010787;28;20483;-70
2024/03/02 10:06:25;;;;;;;10.10;5.83;;;10.70;67.20;;;;;;5008601;28;20537;-72
2024/03/02 10:08:51;;;;;;;8.63;5.47;;;10.90;66.90;;;;;;5008689;28;20924;-72
2024/03/02 10:11:28;;;;;;;11.37;5.70;;;11.00;66.90;;;;;;5008287;28;20531;-69
2024/03/02 10:14:12;;;;;;;12.43;6.10;;;11.00;66.70;;;;;;5011440;28;20417;-72
2024/03/02 10:16:40;;;;;;;11.40;6.10;;;11.20;66.70;;;;;;5010575;28;20424;-71
2024/03/02 10:19:22;;;;;;;9.00;5.40;;;11.30;66.30;;;;;;5011301;28;21198;-71
2024/03/02 10:21:52;;;;;;;8.40;5.33;;;11.40;66.30;;;;;;5003178;28;20452;-71
2024/03/02 10:24:19;;;;;;;7.30;4.80;;;11.50;65.80;;;;;;5011423;28;20796;-71
2024/03/02 10:26:45;;;;;;;9.83;5.57;;;11.60;66.00;;;;;;5010818;28;20472;-71
2024/03/02 10:29:11;;;;;;;8.30;5.60;;;11.70;65.80;;;;;;5011467;28;20421;-70
2024/03/02 10:31:41;;;;;;;12.33;7.07;;;11.80;65.60;;;;;;5007625;28;20495;-71
2024/03/02 10:34:09;;;;;;;21.77;9.83;;;12.00;65.30;;;;;;5011855;28;20420;-71
2024/03/02 10:36:35;;;;;;;9.13;4.80;;;12.00;65.10;;;;;;5010149;28;20806;-68
2024/03/02 10:39:05;;;;;;;10.60;5.00;;;12.20;64.80;;;;;;5011639;28;20943;-72
2024/03/02 10:41:34;;;;;;;10.63;4.83;;;12.40;64.70;;;;;;5008024;28;20460;-73
2024/03/02 10:44:02;;;;;;;7.80;4.50;;;12.60;64.20;;;;;;5011190;28;20495;-74
2024/03/02 10:46:30;;;;;;;7.80;4.70;;;12.50;63.90;;;;;;5010764;28;20456;-71
2024/03/02 10:48:58;;;;;;;8.40;4.60;;;12.60;63.80;;;;;;5010599;28;20436;-72
2024/03/02 10:51:25;;;;;;;8.50;5.13;;;12.90;63.80;;;;;;5007810;28;20944;-72
2024/03/02 10:53:51;;;;;;;7.20;4.20;;;13.30;63.40;;;;;;5011738;28;20439;-71
2024/03/02 10:56:27;;;;;;;6.60;4.33;;;13.80;62.20;;;;;;5009296;28;20427;-72
2024/03/02 10:59:01;;;;;;;6.73;4.37;;;14.30;62.20;;;;;;5005721;28;20525;-70
2024/03/02 11:01:28;;;;;;;7.50;4.20;;;15.00;62.20;;;;;;5009272;28;20474;-69
2024/03/02 11:03:57;;;;;;;6.13;4.00;;;15.40;60.40;;;;;;5011239;28;20417;-74
2024/03/02 11:06:23;;;;;;;7.33;4.50;;;15.90;59.30;;;;;;5011783;28;20416;-73
2024/03/02 11:08:54;;;;;;;6.93;4.50;;;15.70;58.90;;;;;;5012806;28;20495;-72
2024/03/02 11:11:27;;;;;;;7.80;4.63;;;15.80;59.30;;;;;;5014679;28;20481;-72
2024/03/02 11:13:57;;;;;;;8.50;5.07;;;15.80;59.20;;;;;;5013957;28;20932;-71
2024/03/02 11:16:43;;;;;;;6.43;4.30;;;15.90;59.20;;;;;;5010261;28;20434;-72
2024/03/02 11:19:12;;;;;;;9.40;4.47;;;16.00;59.30;;;;;;5010817;28;20455;-70
2024/03/02 11:21:38;;;;;;;9.40;4.57;;;16.40;58.20;;;;;;5007497;28;20468;-71
2024/03/02 11:24:24;;;;;;;7.50;4.20;;;16.60;57.70;;;;;;5010555;28;20418;-72
2024/03/02 11:26:51;;;;;;;5.77;4.30;;;16.70;57.40;;;;;;5006575;28;20513;-72
2024/03/02 11:29:35;;;;;;;5.20;3.10;;;16.80;56.60;;;;;;5011161;28;20425;-70
2024/03/02 11:32:05;;;;;;;5.53;2.57;;;17.10;55.70;;;;;;5006500;28;20487;-72
2024/03/02 11:34:33;;;;;;;4.73;2.63;;;17.20;54.50;;;;;;5010359;28;20559;-71
2024/03/02 11:36:59;;;;;;;2.27;1.97;;;17.40;52.80;;;;;;5010022;28;20511;-72
2024/03/02 11:39:26;;;;;;;3.50;1.97;;;17.40;52.80;;;;;;5011654;28;20420;-71
2024/03/02 11:41:51;;;;;;;5.10;1.73;;;17.50;52.80;;;;;;5007503;28;20544;-73
2024/03/02 11:44:17;;;;;;;2.33;1.30;;;17.40;52.20;;;;;;5010540;28;20926;-71
2024/03/02 11:46:46;;;;;;;2.27;1.37;;;17.40;51.80;;;;;;5010460;28;20611;-72
2024/03/02 11:49:14;;;;;;;2.00;1.27;;;17.30;51.70;;;;;;5011787;28;20194;-70
2024/03/02 11:52:00;;;;;;;1.87;1.43;;;17.30;51.70;;;;;;5013571;28;20487;-72
2024/03/02 11:54:27;;;;;;;3.60;2.10;;;17.50;51.20;;;;;;5011995;28;20931;-70
2024/03/02 11:56:53;;;;;;;1.90;1.13;;;17.40;51.60;;;;;;5015418;28;20419;-72
2024/03/02 11:59:20;;;;;;;2.23;1.03;;;17.20;50.90;;;;;;5009880;28;20423;-72
2024/03/02 12:01:48;;;;;;;1.10;0.83;;;17.40;50.10;;;;;;5007349;28;20463;-72
2024/03/02 12:04:14;;;;;;;2.50;1.37;;;17.60;48.90;;;;;;5010734;28;20430;-73
2024/03/02 12:06:39;;;;;;;3.00;1.17;;;17.70;49.10;;;;;;5010700;28;20480;-70
2024/03/02 12:09:05;;;;;;;2.50;1.30;;;17.80;49.70;;;;;;5011035;28;20179;-72
2024/03/02 12:11:30;;;;;;;1.93;1.27;;;17.80;48.50;;;;;;5006993;28;20672;-71
2024/03/02 12:13:57;;;;;;;2.80;1.63;;;17.60;49.30;;;;;;5009887;28;20232;-71
2024/03/02 12:16:26;;;;;;;2.73;1.80;;;17.60;50.20;;;;;;5009287;28;20178;-71
2024/03/02 12:18:52;;;;;;;2.90;1.50;;;17.70;51.20;;;;;;5009757;28;20423;-72
2024/03/02 12:21:17;;;;;;;2.40;1.60;;;17.80;50.50;;;;;;5007502;28;20456;-70
2024/03/02 12:23:44;;;;;;;2.27;1.63;;;17.90;50.20;;;;;;5009799;28;20182;-71
2024/03/02 12:26:09;;;;;;;2.63;1.70;;;18.00;48.90;;;;;;5005424;28;20394;-73
2024/03/02 12:28:35;;;;;;;3.20;2.00;;;18.00;49.00;;;;;;5009234;28;21178;-72
2024/03/02 12:31:01;;;;;;;3.30;1.90;;;18.20;49.50;;;;;;5006779;28;20274;-72
2024/03/02 12:33:27;;;;;;;2.20;1.20;;;18.40;49.00;;;;;;5009534;28;20205;-71
2024/03/02 12:35:52;;;;;;;1.90;1.60;;;18.60;48.30;;;;;;5009609;28;20205;-72
2024/03/02 12:38:19;;;;;;;5.77;2.90;;;18.40;47.80;;;;;;5009485;28;20436;-73
2024/03/02 12:40:47;;;;;;;3.40;1.90;;;18.20;48.60;;;;;;5006844;28;20214;-72
2024/03/02 12:43:12;;;;;;;3.43;1.57;;;18.30;48.20;;;;;;5009602;28;20429;-73
2024/03/02 12:45:38;;;;;;;2.60;2.10;;;18.50;47.10;;;;;;5009395;28;20429;-71